Terminal Aerodrome Forecast
Issued by NWS Shreveport, LA

Home | Current Version | Previous Version | Text Only | Print | Product List | Glossary On
Versions: 1 2 3 4 5 6 7 8 9 10 11 12 13 14 15 16 17 18 19 20 21 22 23 24 25 26 27 28 29 30 31 32 33 34 35 36
000
FTUS44 KSHV 212345
TAFTXK
TAF
KTXK 212345Z 2200/2224 15012G20KT P6SM BKN250
     FM220300 15012KT P6SM BKN040
      TEMPO 2207/2211 P6SM OVC025
     FM221300 16012G18KT P6SM VCSH OVC020
     FM221900 17014G22KT 3SM SHRA BR OVC012=

USA.gov is the U.S. government's official web portal to all federal, state and local government web resources and services.